sensor_id;sensor_type;location;lat;lon;timestamp;pressure;altitude;pressure_sealevel;temperature;humidity
20455;BME280;10386;54.314;10.022;2023-05-01T00:00:15;102266.78;;;5.43;100.00
20455;BME280;10386;54.314;10.022;2023-05-01T00:02:41;102267.06;;;5.33;100.00
20455;BME280;10386;54.314;10.022;2023-05-01T00:05:08;102257.19;;;5.33;100.00
20455;BME280;10386;54.314;10.022;2023-05-01T00:07:35;102261.75;;;5.30;100.00
20455;BME280;10386;54.314;10.022;2023-05-01T00:10:02;102247.91;;;5.43;100.00
20455;BME280;10386;54.314;10.022;2023-05-01T00:12:29;102250.63;;;5.43;100.00
20455;BME280;10386;54.314;10.022;2023-05-01T00:14:56;102249.88;;;5.37;100.00
20455;BME280;10386;54.314;10.022;2023-05-01T00:17:22;102253.38;;;5.40;100.00
20455;BME280;10386;54.314;10.022;2023-05-01T00:19:53;102246.25;;;5.39;100.00
20455;BME280;10386;54.314;10.022;2023-05-01T00:22:20;102242.69;;;5.37;100.00
20455;BME280;10386;54.314;10.022;2023-05-01T00:24:47;102241.13;;;5.29;100.00
20455;BME280;10386;54.314;10.022;2023-05-01T00:27:15;102242.91;;;5.30;100.00
20455;BME280;10386;54.314;10.022;2023-05-01T00:29:42;102238.50;;;5.27;100.00
20455;BME280;10386;54.314;10.022;2023-05-01T00:32:08;102240.34;;;5.25;100.00
20455;BME280;10386;54.314;10.022;2023-05-01T00:34:35;102234.13;;;5.23;100.00
20455;BME280;10386;54.314;10.022;2023-05-01T00:37:02;102229.84;;;5.16;100.00
20455;BME280;10386;54.314;10.022;2023-05-01T00:39:29;102221.59;;;5.22;100.00
20455;BME280;10386;54.314;10.022;2023-05-01T00:41:55;102222.63;;;5.17;100.00
20455;BME280;10386;54.314;10.022;2023-05-01T00:44:23;102218.47;;;5.37;100.00
20455;BME280;10386;54.314;10.022;2023-05-01T00:46:49;102203.34;;;5.63;100.00
20455;BME280;10386;54.314;10.022;2023-05-01T00:49:16;102212.16;;;5.68;100.00
20455;BME280;10386;54.314;10.022;2023-05-01T00:51:45;102209.38;;;5.71;100.00
20455;BME280;10386;54.314;10.022;2023-05-01T00:54:14;102196.25;;;5.90;100.00
20455;BME280;10386;54.314;10.022;2023-05-01T00:56:41;102199.94;;;5.87;100.00
20455;BME280;10386;54.314;10.022;2023-05-01T00:59:08;102192.81;;;5.85;100.00
20455;BME280;10386;54.314;10.022;2023-05-01T01:01:35;102196.50;;;5.82;100.00
20455;BME280;10386;54.314;10.022;2023-05-01T01:04:02;102193.31;;;5.99;100.00
20455;BME280;10386;54.314;10.022;2023-05-01T01:06:52;102185.44;;;5.91;100.00
20455;BME280;10386;54.314;10.022;2023-05-01T01:09:31;102185.38;;;5.93;100.00
20455;BME280;10386;54.314;10.022;2023-05-01T01:12:08;102181.84;;;5.91;100.00
20455;BME280;10386;54.314;10.022;2023-05-01T01:14:44;102177.38;;;5.90;100.00
20455;BME280;10386;54.314;10.022;2023-05-01T01:17:29;102175.72;;;5.86;100.00
20455;BME280;10386;54.314;10.022;2023-05-01T01:22:42;102164.06;;;5.85;100.00
20455;BME280;10386;54.314;10.022;2023-05-01T01:25:43;102164.66;;;5.95;100.00
20455;BME280;10386;54.314;10.022;2023-05-01T01:28:30;102160.19;;;5.94;100.00
20455;BME280;10386;54.314;10.022;2023-05-01T01:34:24;102161.38;;;5.85;100.00
20455;BME280;10386;54.314;10.022;2023-05-01T01:37:02;102157.09;;;5.77;100.00
20455;BME280;10386;54.314;10.022;2023-05-01T01:39:44;102156.94;;;5.83;100.00
20455;BME280;10386;54.314;10.022;2023-05-01T01:42:17;102156.66;;;5.92;100.00
20455;BME280;10386;54.314;10.022;2023-05-01T01:44:51;102149.59;;;5.88;100.00
20455;BME280;10386;54.314;10.022;2023-05-01T01:47:21;102154.78;;;5.65;100.00
20455;BME280;10386;54.314;10.022;2023-05-01T01:49:54;102152.56;;;5.50;100.00
20455;BME280;10386;54.314;10.022;2023-05-01T01:52:25;102146.91;;;5.29;100.00
20455;BME280;10386;54.314;10.022;2023-05-01T01:55:04;102149.28;;;5.09;100.00
20455;BME280;10386;54.314;10.022;2023-05-01T01:57:32;102147.38;;;4.80;100.00
20455;BME280;10386;54.314;10.022;2023-05-01T02:00:00;102155.94;;;4.62;100.00
20455;BME280;10386;54.314;10.022;2023-05-01T02:02:28;102156.19;;;4.52;100.00
20455;BME280;10386;54.314;10.022;2023-05-01T02:04:56;102159.25;;;4.38;100.00
20455;BME280;10386;54.314;10.022;2023-05-01T02:07:25;102156.72;;;4.32;100.00
20455;BME280;10386;54.314;10.022;2023-05-01T02:09:54;102152.34;;;4.28;100.00
20455;BME280;10386;54.314;10.022;2023-05-01T02:12:24;102159.59;;;4.23;100.00
20455;BME280;10386;54.314;10.022;2023-05-01T02:14:52;102158.13;;;4.12;100.00
20455;BME280;10386;54.314;10.022;2023-05-01T02:17:20;102169.97;;;4.03;100.00
20455;BME280;10386;54.314;10.022;2023-05-01T02:19:48;102157.50;;;4.01;100.00
20455;BME280;10386;54.314;10.022;2023-05-01T02:22:16;102157.13;;;4.16;100.00
20455;BME280;10386;54.314;10.022;2023-05-01T02:24:45;102152.75;;;4.12;100.00
20455;BME280;10386;54.314;10.022;2023-05-01T02:27:16;102150.00;;;4.13;100.00
20455;BME280;10386;54.314;10.022;2023-05-01T02:29:46;102148.84;;;4.25;100.00
20455;BME280;10386;54.314;10.022;2023-05-01T02:32:12;102138.06;;;4.26;100.00
20455;BME280;10386;54.314;10.022;2023-05-01T02:34:39;102138.84;;;4.31;100.00
20455;BME280;10386;54.314;10.022;2023-05-01T02:37:09;102133.38;;;4.34;100.00
20455;BME280;10386;54.314;10.022;2023-05-01T02:39:37;102122.88;;;4.25;100.00
20455;BME280;10386;54.314;10.022;2023-05-01T02:42:05;102121.88;;;4.28;100.00
20455;BME280;10386;54.314;10.022;2023-05-01T02:44:39;102125.41;;;4.31;100.00
20455;BME280;10386;54.314;10.022;2023-05-01T02:47:09;102112.47;;;4.45;100.00
20455;BME280;10386;54.314;10.022;2023-05-01T02:49:39;102115.28;;;4.41;100.00
20455;BME280;10386;54.314;10.022;2023-05-01T02:52:07;102108.88;;;4.45;100.00
20455;BME280;10386;54.314;10.022;2023-05-01T02:54:34;102110.56;;;4.50;100.00
20455;BME280;10386;54.314;10.022;2023-05-01T02:57:03;102104.28;;;4.50;100.00
20455;BME280;10386;54.314;10.022;2023-05-01T02:59:31;102101.50;;;4.53;100.00
20455;BME280;10386;54.314;10.022;2023-05-01T03:02:01;102097.94;;;4.52;100.00
20455;BME280;10386;54.314;10.022;2023-05-01T03:04:28;102104.28;;;4.50;100.00
20455;BME280;10386;54.314;10.022;2023-05-01T03:06:54;102093.41;;;4.54;100.00
20455;BME280;10386;54.314;10.022;2023-05-01T03:09:22;102088.13;;;4.51;100.00
20455;BME280;10386;54.314;10.022;2023-05-01T03:11:49;102080.00;;;4.53;100.00
20455;BME280;10386;54.314;10.022;2023-05-01T03:14:15;102078.31;;;4.49;100.00
20455;BME280;10386;54.314;10.022;2023-05-01T03:16:42;102083.75;;;4.47;100.00
20455;BME280;10386;54.314;10.022;2023-05-01T03:19:09;102081.00;;;4.49;100.00
20455;BME280;10386;54.314;10.022;2023-05-01T03:21:36;102071.13;;;4.49;100.00
20455;BME280;10386;54.314;10.022;2023-05-01T03:24:03;102070.00;;;4.58;100.00
20455;BME280;10386;54.314;10.022;2023-05-01T03:26:30;102065.63;;;4.54;100.00
20455;BME280;10386;54.314;10.022;2023-05-01T03:28:58;102062.75;;;4.60;100.00
20455;BME280;10386;54.314;10.022;2023-05-01T03:31:25;102064.69;;;4.55;100.00
20455;BME280;10386;54.314;10.022;2023-05-01T03:33:52;102070.25;;;4.49;100.00
20455;BME280;10386;54.314;10.022;2023-05-01T03:36:18;102066.63;;;4.50;100.00
20455;BME280;10386;54.314;10.022;2023-05-01T03:38:47;102062.94;;;4.54;100.00
20455;BME280;10386;54.314;10.022;2023-05-01T03:41:14;102059.63;;;4.44;100.00
20455;BME280;10386;54.314;10.022;2023-05-01T03:43:41;102059.66;;;4.43;100.00
20455;BME280;10386;54.314;10.022;2023-05-01T03:46:07;102061.50;;;4.41;100.00
20455;BME280;10386;54.314;10.022;2023-05-01T03:48:34;102055.09;;;4.46;100.00
20455;BME280;10386;54.314;10.022;2023-05-01T03:51:01;102049.06;;;4.37;100.00
20455;BME280;10386;54.314;10.022;2023-05-01T03:53:28;102054.25;;;4.44;100.00
20455;BME280;10386;54.314;10.022;2023-05-01T03:55:54;102050.63;;;4.45;100.00
20455;BME280;10386;54.314;10.022;2023-05-01T03:58:21;102051.41;;;4.50;100.00
20455;BME280;10386;54.314;10.022;2023-05-01T04:00:48;102054.03;;;4.52;100.00
20455;BME280;10386;54.314;10.022;2023-05-01T04:03:16;102049.63;;;4.49;100.00
20455;BME280;10386;54.314;10.022;2023-05-01T04:05:43;102044.84;;;4.60;100.00
20455;BME280;10386;54.314;10.022;2023-05-01T04:08:10;102042.66;;;4.74;100.00
20455;BME280;10386;54.314;10.022;2023-05-01T04:10:36;102040.41;;;4.90;100.00
20455;BME280;10386;54.314;10.022;2023-05-01T04:13:03;102039.16;;;5.01;100.00
20455;BME280;10386;54.314;10.022;2023-05-01T04:15:30;102025.66;;;5.03;100.00
20455;BME280;10386;54.314;10.022;2023-05-01T04:17:57;102034.81;;;5.26;100.00
20455;BME280;10386;54.314;10.022;2023-05-01T04:20:23;102023.47;;;5.44;100.00
20455;BME280;10386;54.314;10.022;2023-05-01T04:22:50;102017.16;;;5.45;100.00
20455;BME280;10386;54.314;10.022;2023-05-01T04:25:17;102016.72;;;5.58;100.00
20455;BME280;10386;54.314;10.022;2023-05-01T04:27:44;102014.47;;;5.72;100.00
20455;BME280;10386;54.314;10.022;2023-05-01T04:30:10;102009.19;;;5.97;100.00
20455;BME280;10386;54.314;10.022;2023-05-01T04:32:37;102010.03;;;5.99;100.00
20455;BME280;10386;54.314;10.022;2023-05-01T04:35:04;102014.47;;;6.26;100.00
20455;BME280;10386;54.314;10.022;2023-05-01T04:37:31;102009.34;;;6.43;100.00
20455;BME280;10386;54.314;10.022;2023-05-01T04:39:58;102008.19;;;6.50;100.00
20455;BME280;10386;54.314;10.022;2023-05-01T04:42:32;101995.19;;;6.61;100.00
20455;BME280;10386;54.314;10.022;2023-05-01T04:44:59;101987.34;;;6.78;100.00
20455;BME280;10386;54.314;10.022;2023-05-01T04:47:28;101980.94;;;6.82;100.00
20455;BME280;10386;54.314;10.022;2023-05-01T04:49:55;101984.56;;;6.81;100.00
20455;BME280;10386;54.314;10.022;2023-05-01T04:52:22;101976.28;;;7.08;100.00
20455;BME280;10386;54.314;10.022;2023-05-01T04:54:49;101963.00;;;7.02;100.00
20455;BME280;10386;54.314;10.022;2023-05-01T04:57:16;101966.69;;;7.22;100.00
20455;BME280;10386;54.314;10.022;2023-05-01T04:59:43;101971.19;;;7.22;100.00
20455;BME280;10386;54.314;10.022;2023-05-01T05:02:10;101976.69;;;7.20;100.00
20455;BME280;10386;54.314;10.022;2023-05-01T05:04:36;101971.00;;;7.49;100.00
20455;BME280;10386;54.314;10.022;2023-05-01T05:07:03;101970.81;;;7.54;100.00
20455;BME280;10386;54.314;10.022;2023-05-01T05:09:30;101969.75;;;7.58;100.00
20455;BME280;10386;54.314;10.022;2023-05-01T05:11:56;101972.06;;;7.45;100.00
20455;BME280;10386;54.314;10.022;2023-05-01T05:14:23;101963.69;;;7.51;100.00
20455;BME280;10386;54.314;10.022;2023-05-01T05:16:50;101977.53;;;7.44;100.00
20455;BME280;10386;54.314;10.022;2023-05-01T05:19:17;101975.41;;;7.52;100.00
20455;BME280;10386;54.314;10.022;2023-05-01T05:21:43;101976.97;;;7.57;100.00
20455;BME280;10386;54.314;10.022;2023-05-01T05:24:10;101973.06;;;7.86;100.00
20455;BME280;10386;54.314;10.022;2023-05-01T05:26:37;101970.88;;;7.95;100.00
20455;BME280;10386;54.314;10.022;2023-05-01T05:29:03;101966.50;;;8.13;100.00
20455;BME280;10386;54.314;10.022;2023-05-01T05:31:30;101951.44;;;8.27;100.00
20455;BME280;10386;54.314;10.022;2023-05-01T05:33:57;101946.09;;;8.45;100.00
20455;BME280;10386;54.314;10.022;2023-05-01T05:36:24;101953.09;;;8.51;100.00
20455;BME280;10386;54.314;10.022;2023-05-01T05:38:53;101946.44;;;8.58;100.00
20455;BME280;10386;54.314;10.022;2023-05-01T05:41:19;101948.88;;;8.64;100.00
20455;BME280;10386;54.314;10.022;2023-05-01T05:43:47;101951.44;;;8.85;100.00
20455;BME280;10386;54.314;10.022;2023-05-01T05:46:13;101940.72;;;9.02;100.00
20455;BME280;10386;54.314;10.022;2023-05-01T05:48:40;101939.59;;;8.88;100.00
20455;BME280;10386;54.314;10.022;2023-05-01T05:51:07;101942.69;;;8.99;100.00
20455;BME280;10386;54.314;10.022;2023-05-01T05:53:33;101939.41;;;9.11;100.00
20455;BME280;10386;54.314;10.022;2023-05-01T05:56:00;101930.78;;;9.21;100.00
20455;BME280;10386;54.314;10.022;2023-05-01T05:58:27;101926.81;;;9.28;100.00
20455;BME280;10386;54.314;10.022;2023-05-01T06:00:54;101926.16;;;9.23;100.00
20455;BME280;10386;54.314;10.022;2023-05-01T06:03:23;101920.94;;;9.37;100.00
20455;BME280;10386;54.314;10.022;2023-05-01T06:05:50;101922.47;;;9.43;100.00
20455;BME280;10386;54.314;10.022;2023-05-01T06:08:17;101912.81;;;9.37;100.00
20455;BME280;10386;54.314;10.022;2023-05-01T06:10:44;101914.94;;;9.66;100.00
20455;BME280;10386;54.314;10.022;2023-05-01T06:13:12;101916.06;;;9.62;100.00
20455;BME280;10386;54.314;10.022;2023-05-01T06:15:41;101906.13;;;9.96;100.00
20455;BME280;10386;54.314;10.022;2023-05-01T06:18:09;101907.59;;;10.03;100.00
20455;BME280;10386;54.314;10.022;2023-05-01T06:20:37;101894.25;;;9.99;100.00
20455;BME280;10386;54.314;10.022;2023-05-01T06:23:04;101901.06;;;10.89;100.00
20455;BME280;10386;54.314;10.022;2023-05-01T06:25:30;101878.38;;;11.36;100.00
20455;BME280;10386;54.314;10.022;2023-05-01T06:27:57;101874.16;;;11.77;100.00
20455;BME280;10386;54.314;10.022;2023-05-01T06:30:24;101858.59;;;11.95;100.00
20455;BME280;10386;54.314;10.022;2023-05-01T06:32:51;101846.41;;;12.30;100.00
20455;BME280;10386;54.314;10.022;2023-05-01T06:35:17;101832.59;;;12.74;100.00
20455;BME280;10386;54.314;10.022;2023-05-01T06:37:44;101827.34;;;12.85;100.00
20455;BME280;10386;54.314;10.022;2023-05-01T06:40:11;101813.81;;;12.84;100.00
20455;BME280;10386;54.314;10.022;2023-05-01T06:42:38;101814.94;;;13.48;100.00
20455;BME280;10386;54.314;10.022;2023-05-01T06:45:06;101804.78;;;13.50;100.00
20455;BME280;10386;54.314;10.022;2023-05-01T06:47:33;101789.22;;;14.03;100.00
20455;BME280;10386;54.314;10.022;2023-05-01T06:50:01;101775.44;;;14.05;100.00
20455;BME280;10386;54.314;10.022;2023-05-01T06:52:30;101767.84;;;14.22;100.00
20455;BME280;10386;54.314;10.022;2023-05-01T06:54:57;101762.03;;;14.27;100.00
20455;BME280;10386;54.314;10.022;2023-05-01T06:57:24;101767.78;;;14.10;100.00
20455;BME280;10386;54.314;10.022;2023-05-01T06:59:51;101752.72;;;14.42;100.00
20455;BME280;10386;54.314;10.022;2023-05-01T07:02:18;101753.94;;;14.38;100.00
20455;BME280;10386;54.314;10.022;2023-05-01T07:04:44;101762.78;;;14.29;100.00
20455;BME280;10386;54.314;10.022;2023-05-01T07:07:11;101767.66;;;13.86;100.00
20455;BME280;10386;54.314;10.022;2023-05-01T07:09:39;101756.50;;;13.38;100.00
20455;BME280;10386;54.314;10.022;2023-05-01T07:12:06;101774.03;;;12.95;100.00
20455;BME280;10386;54.314;10.022;2023-05-01T07:14:34;101798.63;;;12.94;100.00
20455;BME280;10386;54.314;10.022;2023-05-01T07:17:02;101804.97;;;12.66;100.00
20455;BME280;10386;54.314;10.022;2023-05-01T07:19:29;101803.59;;;12.73;100.00
20455;BME280;10386;54.314;10.022;2023-05-01T07:21:55;101802.25;;;12.66;100.00
20455;BME280;10386;54.314;10.022;2023-05-01T07:24:22;101782.31;;;12.52;100.00
20455;BME280;10386;54.314;10.022;2023-05-01T07:26:49;101793.69;;;12.58;100.00
20455;BME280;10386;54.314;10.022;2023-05-01T07:29:17;101786.88;;;12.65;100.00
20455;BME280;10386;54.314;10.022;2023-05-01T07:31:44;101783.75;;;12.71;100.00
20455;BME280;10386;54.314;10.022;2023-05-01T07:34:11;101789.66;;;13.06;100.00
20455;BME280;10386;54.314;10.022;2023-05-01T07:36:39;101766.94;;;13.19;100.00
20455;BME280;10386;54.314;10.022;2023-05-01T07:39:07;101773.22;;;13.46;100.00
20455;BME280;10386;54.314;10.022;2023-05-01T07:41:33;101768.13;;;13.54;100.00
20455;BME280;10386;54.314;10.022;2023-05-01T07:44:00;101753.00;;;13.63;100.00
20455;BME280;10386;54.314;10.022;2023-05-01T07:46:27;101738.19;;;13.79;100.00
20455;BME280;10386;54.314;10.022;2023-05-01T07:48:54;101729.00;;;13.80;100.00
20455;BME280;10386;54.314;10.022;2023-05-01T07:51:20;101729.78;;;14.07;100.00
20455;BME280;10386;54.314;10.022;2023-05-01T07:53:47;101731.88;;;14.28;100.00
20455;BME280;10386;54.314;10.022;2023-05-01T07:56:16;101717.19;;;14.42;100.00
20455;BME280;10386;54.314;10.022;2023-05-01T07:58:43;101689.47;;;14.23;100.00
20455;BME280;10386;54.314;10.022;2023-05-01T08:01:12;101678.19;;;14.40;100.00
20455;BME280;10386;54.314;10.022;2023-05-01T08:03:39;101685.38;;;14.53;100.00
20455;BME280;10386;54.314;10.022;2023-05-01T08:06:06;101692.03;;;14.62;100.00
20455;BME280;10386;54.314;10.022;2023-05-01T08:08:33;101660.69;;;14.78;100.00
20455;BME280;10386;54.314;10.022;2023-05-01T08:11:00;101652.72;;;14.99;100.00
20455;BME280;10386;54.314;10.022;2023-05-01T08:13:26;101637.25;;;14.87;100.00
20455;BME280;10386;54.314;10.022;2023-05-01T08:15:53;101641.56;;;14.78;100.00
20455;BME280;10386;54.314;10.022;2023-05-01T08:18:20;101655.38;;;15.00;100.00
20455;BME280;10386;54.314;10.022;2023-05-01T08:20:47;101639.50;;;15.16;100.00
20455;BME280;10386;54.314;10.022;2023-05-01T08:23:15;101629.91;;;15.34;100.00
20455;BME280;10386;54.314;10.022;2023-05-01T08:25:42;101622.25;;;15.61;100.00
20455;BME280;10386;54.314;10.022;2023-05-01T08:28:09;101616.25;;;15.56;100.00
20455;BME280;10386;54.314;10.022;2023-05-01T08:30:35;101648.56;;;15.40;100.00
20455;BME280;10386;54.314;10.022;2023-05-01T08:33:02;101628.91;;;15.35;100.00
20455;BME280;10386;54.314;10.022;2023-05-01T08:35:29;101642.88;;;15.54;100.00
20455;BME280;10386;54.314;10.022;2023-05-01T08:37:56;101661.06;;;15.55;100.00
20455;BME280;10386;54.314;10.022;2023-05-01T08:40:24;101662.72;;;15.68;100.00
20455;BME280;10386;54.314;10.022;2023-05-01T08:42:53;101652.13;;;15.64;100.00
20455;BME280;10386;54.314;10.022;2023-05-01T08:45:22;101661.03;;;16.22;100.00
20455;BME280;10386;54.314;10.022;2023-05-01T08:47:51;101642.09;;;16.08;100.00
20455;BME280;10386;54.314;10.022;2023-05-01T08:50:20;101635.34;;;16.12;100.00
20455;BME280;10386;54.314;10.022;2023-05-01T08:52:50;101643.84;;;16.31;100.00
20455;BME280;10386;54.314;10.022;2023-05-01T08:55:18;101638.34;;;16.64;100.00
20455;BME280;10386;54.314;10.022;2023-05-01T08:57:47;101627.78;;;16.91;100.00
20455;BME280;10386;54.314;10.022;2023-05-01T09:00:19;101611.09;;;16.41;100.00
20455;BME280;10386;54.314;10.022;2023-05-01T09:02:47;101611.47;;;16.47;100.00
20455;BME280;10386;54.314;10.022;2023-05-01T09:05:16;101605.84;;;16.27;100.00
20455;BME280;10386;54.314;10.022;2023-05-01T09:07:43;101615.69;;;16.51;100.00
20455;BME280;10386;54.314;10.022;2023-05-01T09:10:12;101606.63;;;16.07;100.00
20455;BME280;10386;54.314;10.022;2023-05-01T09:12:41;101630.63;;;16.14;100.00
20455;BME280;10386;54.314;10.022;2023-05-01T09:15:11;101615.44;;;16.10;100.00
20455;BME280;10386;54.314;10.022;2023-05-01T09:17:39;101632.66;;;16.23;100.00
20455;BME280;10386;54.314;10.022;2023-05-01T09:20:06;101609.19;;;15.64;100.00
20455;BME280;10386;54.314;10.022;2023-05-01T09:22:35;101620.41;;;15.61;100.00
20455;BME280;10386;54.314;10.022;2023-05-01T09:25:02;101625.41;;;16.11;100.00
20455;BME280;10386;54.314;10.022;2023-05-01T09:27:33;101629.38;;;16.07;100.00
20455;BME280;10386;54.314;10.022;2023-05-01T09:30:01;101620.69;;;16.24;100.00
20455;BME280;10386;54.314;10.022;2023-05-01T09:32:28;101596.25;;;16.10;99.04
20455;BME280;10386;54.314;10.022;2023-05-01T09:35:09;101606.22;;;15.89;99.79
20455;BME280;10386;54.314;10.022;2023-05-01T09:37:36;101617.38;;;16.74;99.96
20455;BME280;10386;54.314;10.022;2023-05-01T09:40:04;101635.00;;;17.03;100.00
20455;BME280;10386;54.314;10.022;2023-05-01T09:42:32;101639.28;;;17.68;100.00
20455;BME280;10386;54.314;10.022;2023-05-01T09:45:00;101603.13;;;17.11;98.91
20455;BME280;10386;54.314;10.022;2023-05-01T09:47:30;101605.56;;;16.94;99.28
20455;BME280;10386;54.314;10.022;2023-05-01T09:49:57;101618.03;;;16.67;100.00
20455;BME280;10386;54.314;10.022;2023-05-01T09:52:26;101622.78;;;16.65;100.00
20455;BME280;10386;54.314;10.022;2023-05-01T09:55:26;101596.81;;;17.00;97.98
20455;BME280;10386;54.314;10.022;2023-05-01T09:57:52;101621.75;;;17.08;100.00
20455;BME280;10386;54.314;10.022;2023-05-01T10:00:19;101588.03;;;17.37;97.13
20455;BME280;10386;54.314;10.022;2023-05-01T10:02:48;101583.03;;;17.42;96.26
20455;BME280;10386;54.314;10.022;2023-05-01T10:05:16;101569.63;;;17.49;94.83
20455;BME280;10386;54.314;10.022;2023-05-01T10:08:00;101565.16;;;17.48;93.56
20455;BME280;10386;54.314;10.022;2023-05-01T10:10:29;101568.28;;;17.64;94.30
20455;BME280;10386;54.314;10.022;2023-05-01T10:13:15;101560.19;;;17.92;92.11
20455;BME280;10386;54.314;10.022;2023-05-01T10:15:43;101564.72;;;18.03;91.29
20455;BME280;10386;54.314;10.022;2023-05-01T10:18:09;101539.59;;;18.16;90.35
20455;BME280;10386;54.314;10.022;2023-05-01T10:20:39;101528.28;;;18.10;88.70
20455;BME280;10386;54.314;10.022;2023-05-01T10:23:06;101499.47;;;18.44;84.85
20455;BME280;10386;54.314;10.022;2023-05-01T10:25:33;101496.84;;;18.42;83.60
20455;BME280;10386;54.314;10.022;2023-05-01T10:28:02;101515.53;;;18.39;85.95
20455;BME280;10386;54.314;10.022;2023-05-01T10:30:30;101487.34;;;18.07;81.83
20455;BME280;10386;54.314;10.022;2023-05-01T10:32:58;101487.78;;;18.12;81.09
20455;BME280;10386;54.314;10.022;2023-05-01T10:35:31;101506.28;;;18.01;82.16
20455;BME280;10386;54.314;10.022;2023-05-01T10:38:12;101522.16;;;17.97;83.29
20455;BME280;10386;54.314;10.022;2023-05-01T10:40:47;101504.84;;;18.06;81.71
20455;BME280;10386;54.314;10.022;2023-05-01T10:45:45;101480.78;;;18.28;80.32
20455;BME280;10386;54.314;10.022;2023-05-01T10:53:44;101497.88;;;19.27;78.15
20455;BME280;10386;54.314;10.022;2023-05-01T10:58:55;101478.06;;;18.85;75.27
20455;BME280;10386;54.314;10.022;2023-05-01T11:01:35;101449.97;;;18.72;74.23
20455;BME280;10386;54.314;10.022;2023-05-01T11:04:30;101452.97;;;18.98;74.48
20455;BME280;10386;54.314;10.022;2023-05-01T11:09:46;101429.63;;;19.21;70.00
20455;BME280;10386;54.314;10.022;2023-05-01T11:12:46;101417.44;;;19.23;68.78
20455;BME280;10386;54.314;10.022;2023-05-01T11:15:02;101393.91;;;18.92;65.85
20455;BME280;10386;54.314;10.022;2023-05-01T11:20:10;101435.13;;;19.02;67.22
20455;BME280;10386;54.314;10.022;2023-05-01T11:22:39;101423.03;;;19.41;66.69
20455;BME280;10386;54.314;10.022;2023-05-01T11:25:18;101397.19;;;19.78;63.42
20455;BME280;10386;54.314;10.022;2023-05-01T11:27:54;101415.31;;;18.98;64.90
20455;BME280;10386;54.314;10.022;2023-05-01T11:30:21;101412.47;;;18.71;64.90
20455;BME280;10386;54.314;10.022;2023-05-01T11:32:49;101419.69;;;18.91;65.36
20455;BME280;10386;54.314;10.022;2023-05-01T11:35:21;101385.88;;;19.18;62.60
20455;BME280;10386;54.314;10.022;2023-05-01T11:37:49;101438.97;;;19.37;65.97
20455;BME280;10386;54.314;10.022;2023-05-01T11:40:28;101427.03;;;19.19;66.14
20455;BME280;10386;54.314;10.022;2023-05-01T11:45:26;101426.41;;;19.61;65.08
20455;BME280;10386;54.314;10.022;2023-05-01T11:47:53;101409.09;;;19.42;64.76
20455;BME280;10386;54.314;10.022;2023-05-01T11:50:19;101430.13;;;19.43;66.51
20455;BME280;10386;54.314;10.022;2023-05-01T11:52:50;101412.50;;;19.27;65.83
20455;BME280;10386;54.314;10.022;2023-05-01T11:55:20;101453.34;;;19.41;68.78
20455;BME280;10386;54.314;10.022;2023-05-01T11:57:56;101426.94;;;19.38;66.68
20455;BME280;10386;54.314;10.022;2023-05-01T12:00:30;101447.84;;;20.04;67.67
20455;BME280;10386;54.314;10.022;2023-05-01T12:03:06;101436.44;;;20.16;67.34
20455;BME280;10386;54.314;10.022;2023-05-01T12:05:36;101359.09;;;19.91;61.53
20455;BME280;10386;54.314;10.022;2023-05-01T12:10:39;101376.25;;;20.29;61.72
20455;BME280;10386;54.314;10.022;2023-05-01T12:13:07;101377.06;;;19.95;62.21
20455;BME280;10386;54.314;10.022;2023-05-01T12:15:36;101368.75;;;20.22;60.25
20455;BME280;10386;54.314;10.022;2023-05-01T12:18:06;101357.84;;;19.58;60.06
20455;BME280;10386;54.314;10.022;2023-05-01T12:20:41;101384.25;;;19.78;62.16
20455;BME280;10386;54.314;10.022;2023-05-01T12:23:10;101419.66;;;19.83;63.58
20455;BME280;10386;54.314;10.022;2023-05-01T12:25:38;101382.88;;;19.92;62.16
20455;BME280;10386;54.314;10.022;2023-05-01T12:28:12;101387.66;;;20.17;61.79
20455;BME280;10386;54.314;10.022;2023-05-01T12:30:40;101389.44;;;19.64;62.31
20455;BME280;10386;54.314;10.022;2023-05-01T12:33:18;101384.09;;;19.26;62.29
20455;BME280;10386;54.314;10.022;2023-05-01T12:35:47;101362.84;;;19.46;61.06
20455;BME280;10386;54.314;10.022;2023-05-01T12:38:19;101404.38;;;19.61;64.03
20455;BME280;10386;54.314;10.022;2023-05-01T12:40:51;101372.00;;;19.90;61.36
20455;BME280;10386;54.314;10.022;2023-05-01T12:43:31;101425.09;;;20.37;64.27
20455;BME280;10386;54.314;10.022;2023-05-01T12:45:59;101385.22;;;20.14;62.84
20455;BME280;10386;54.314;10.022;2023-05-01T12:48:26;101386.09;;;20.49;61.84
20455;BME280;10386;54.314;10.022;2023-05-01T12:50:53;101421.31;;;20.55;64.64
20455;BME280;10386;54.314;10.022;2023-05-01T12:53:25;101389.38;;;20.18;63.44
20455;BME280;10386;54.314;10.022;2023-05-01T12:55:54;101348.44;;;20.05;60.84
20455;BME280;10386;54.314;10.022;2023-05-01T12:58:22;101378.63;;;20.42;62.68
20455;BME280;10386;54.314;10.022;2023-05-01T13:00:50;101348.66;;;20.47;60.65
20455;BME280;10386;54.314;10.022;2023-05-01T13:03:28;101356.72;;;21.08;60.68
20455;BME280;10386;54.314;10.022;2023-05-01T13:06:00;101346.84;;;20.20;61.87
20455;BME280;10386;54.314;10.022;2023-05-01T13:08:30;101365.38;;;19.83;62.75
20455;BME280;10386;54.314;10.022;2023-05-01T13:11:08;101373.91;;;19.90;63.53
20455;BME280;10386;54.314;10.022;2023-05-01T13:13:35;101366.53;;;20.08;62.99